Flight Track Log - Related Links

Times and Time Zones

All times are in EDT time to prevent confusion due to time zone crossing. See the AFR7363 flight status page for this flight to view local times or setup timezone preferences in your user account.


Time Position Orientation Groundspeed Altitude Reporting Facility
EDT Latitude Longitude Course Direction KTS MPH feet Rate Location/Type
Sun 01:57:00 AM 48.4991 -3.6583 84° East  Level Estimated
Sun 01:58:00 AM 48.5051 -3.5631 84° East  Level Estimated
Sun 01:59:00 AM 48.5128 -3.4403 85° East  Level Estimated
Sun 02:00:00 AM 48.5203 -3.3174 85° East  Level Estimated
Sun 02:01:00 AM 48.5278 -3.1944 85° East  Level Estimated
Sun 02:02:00 AM 48.5350 -3.0715 85° East  Level Estimated
Sun 02:03:00 AM 48.5422 -2.9485 85° East  Level Estimated
Sun 02:04:00 AM 48.5492 -2.8255 85° East  Level Estimated
Sun 02:05:00 AM 48.5564 -2.6978 85° East  Level Estimated
Sun 02:06:00 AM 48.5634 -2.5700 85° East  Level Estimated
Sun 02:07:00 AM 48.5703 -2.4422 85° East  Level Estimated
Sun 02:08:00 AM 48.5770 -2.3144 85° East  Level Estimated
Sun 02:09:00 AM 48.5836 -2.1866 85° East  Level Estimated
Sun 02:10:00 AM 48.5900 -2.0587 86° East  Level Estimated
Sun 02:11:00 AM 48.5964 -1.9308 86° East  Level Estimated
Sun 02:12:00 AM 48.6025 -1.8028 86° East  Level Estimated
Sun 02:13:00 AM 48.6085 -1.6748 86° East  Level Estimated
Sun 02:14:00 AM 48.6144 -1.5468 86° East  Level Estimated
Sun 02:15:00 AM 48.6202 -1.4188 86° East  Level Estimated
Sun 02:16:00 AM 48.6258 -1.2907 86° East  Level Estimated
Sun 02:17:00 AM 48.6312 -1.1626 86° East  Level Estimated
Sun 02:18:00 AM 48.6365 -1.0345 86° East  Level Estimated
Sun 02:19:00 AM 48.6417 -0.9064 86° East  Level Estimated
Sun 02:20:00 AM 48.6467 -0.7782 87° East  Level Estimated
Sun 02:21:00 AM 48.6516 -0.6500 87° East  Level Estimated
Sun 02:22:00 AM 48.6563 -0.5218 87° East  Level Estimated
Sun 02:23:00 AM 48.6609 -0.3936 87° East  Level Estimated
Sun 02:24:00 AM 48.6654 -0.2653 87° East  Level Estimated
Sun 02:25:00 AM 48.6697 -0.1370 87° East  Level Estimated
Sun 02:26:00 AM 48.6739 -0.0087 87° East  Level Estimated
Sun 02:27:00 AM 48.6779 0.1196 87° East  Level Estimated
Sun 02:28:00 AM 48.6818 0.2480 87° East  Level Estimated
Sun 02:29:00 AM 48.6856 0.3764 87° East  Level Estimated
Sun 02:30:00 AM 48.6892 0.5048 88° East  Level Estimated
Sun 02:31:00 AM 48.6926 0.6332 88° East  Level Estimated
Sun 02:32:00 AM 48.6959 0.7616 88° East  Level Estimated
Sun 02:33:00 AM 48.6991 0.8900 88° East  Level Estimated
Sun 02:34:00 AM 48.7022 1.0185 88° East  Level Estimated
Sun 02:35:00 AM 48.7051 1.1470 88° East  Level Estimated
Sun 02:36:00 AM 48.7078 1.2755 88° East  Level Estimated
Sun 02:37:00 AM 48.7104 1.4040 88° East  Level Estimated
Sun 02:38:00 AM 48.7129 1.5325 88° East  Level Estimated
Sun 02:39:00 AM 48.7152 1.6610 88° East  Level Estimated
Sun 02:40:00 AM 48.7174 1.7896 88° East  Level Estimated
Sun 02:41:00 AM 48.7194 1.9181 89° East  Level Estimated
Sun 02:42:00 AM 48.7213 2.0467 89° East  Level Estimated
Sun 02:43:00 AM 48.7230 2.1752 89° East  Level Estimated
Sun 02:44:00 AM 48.7246 2.3038 89° East  Level Estimated
Sun 02:45:00 AM 48.7253 2.3594 89° East  Level Estimated
Sun 02:46:00 AM 48.7253 2.3594 North  Level Estimated
Sun 02:47:00 AM 48.7253 2.3594 North  Level Estimated
Sun 02:48:00 AM 48.7253 2.3594 North  Level Estimated
Sun 02:49:00 AM 48.7253 2.3594 North  Level Estimated
Sun 02:50:00 AM 48.7253 2.3594 North  Level Estimated
Sun 02:51:00 AM 48.7253 2.3594 North  Level Estimated
Sun 02:52:00 AM 48.7253 2.3594 North  Level Estimated
Sun 02:53:00 AM 48.7253 2.3594 North  Level Estimated
Sun 02:54:00 AM 48.7253 2.3594 North  Level Estimated
Sun 02:55:00 AM 48.7253 2.3594 North  Level Estimated
Sun 02:56:00 AM 48.7253 2.3594 North  Level Estimated
Sun 02:57:00 AM 48.7253 2.3594 North  Level Estimated
Sun 02:58:00 AM 48.7253 2.3594 North  Level Estimated
Sun 02:59:00 AM 48.7253 2.3594 North  Level Estimated
Sun 03:00:00 AM 48.7253 2.3594 North  Level Estimated
Sun 03:01:00 AM 48.7253 2.3594 North  Level Estimated
Sun 03:02:00 AM 48.7253 2.3594 North  Level Estimated
Sun 03:03:00 AM 48.7253 2.3594 North  Level Estimated

Login

Don't have an account? Register now (free) for customized features, flight alerts, and more!